Hlavní strana
METAR-TAF:

METAR-TAF

Letiště :

Letiště Vodochody

Praha, Česká republika

zeměpisná šířka: 50-12-59N, zeměpisná délka: 014-23-42E, výška: 280 m

Aktuální stav počasí

Zpráva byla vytvořena před 31 minutami, v 15:00 UTC
Západoseverozápadní vítr 4 kt, proměnlivý mezi západojihozápadním a severoseverovýchodním
Teplota 11°C
Vlhkost vzduchu 32%
Tlak 1033 hPa
Viditelnost 10 km a více
Žádná oblačnost pod 1500 m, nevyskytují se cumulonimby.

METAR: LKVO 201500Z 30004KT 250V030 CAVOK 11/M05 Q1033

Čas: 16:31 (15:31 UTC)


TAF: chybějící

Stav a předpovědi počasí z více než 4 000 letišť (zprávy METAR a TAF).

Červené a žluté tečky na mapě představují dostupné meteorologické stanice.

Když kurzor umístíte na tečku, zobrazí se název stanice.

Pak kliknutím zobrazíte stav a předpověď počasí.

Chcete-li změnit mapu, kliknutím na zelené tlačítko se znaménkem +mapu přiblížíte, kliknutím na zelené tlačítko se znaménkem – mapu oddálíte a kliknutím na zelené šipky přejdete na sousední mapy.


METAR-TAF: